sensor_id;sensor_type;location;lat;lon;timestamp;P1;durP1;ratioP1;P2;durP2;ratioP2
12818;SDS011;6474;53.474;9.894;2023-11-21T00:00:02;2.17;;;1.60;;
12818;SDS011;6474;53.474;9.894;2023-11-21T00:02:37;1.37;;;1.17;;
12818;SDS011;6474;53.474;9.894;2023-11-21T00:05:06;1.53;;;1.47;;
12818;SDS011;6474;53.474;9.894;2023-11-21T00:07:35;1.60;;;1.43;;
12818;SDS011;6474;53.474;9.894;2023-11-21T00:10:04;3.10;;;1.83;;
12818;SDS011;6474;53.474;9.894;2023-11-21T00:12:34;3.30;;;1.43;;
12818;SDS011;6474;53.474;9.894;2023-11-21T00:15:02;3.43;;;2.00;;
12818;SDS011;6474;53.474;9.894;2023-11-21T00:17:32;1.67;;;1.57;;
12818;SDS011;6474;53.474;9.894;2023-11-21T00:20:01;4.13;;;2.00;;
12818;SDS011;6474;53.474;9.894;2023-11-21T00:22:32;1.63;;;1.43;;
12818;SDS011;6474;53.474;9.894;2023-11-21T00:25:01;1.77;;;1.67;;
12818;SDS011;6474;53.474;9.894;2023-11-21T00:27:30;4.40;;;2.00;;
12818;SDS011;6474;53.474;9.894;2023-11-21T00:29:58;2.10;;;2.00;;
12818;SDS011;6474;53.474;9.894;2023-11-21T00:32:26;3.90;;;2.07;;
12818;SDS011;6474;53.474;9.894;2023-11-21T00:34:54;1.93;;;1.77;;
12818;SDS011;6474;53.474;9.894;2023-11-21T00:37:23;1.00;;;1.00;;
12818;SDS011;6474;53.474;9.894;2023-11-21T00:39:51;1.40;;;1.27;;
12818;SDS011;6474;53.474;9.894;2023-11-21T00:42:19;1.50;;;1.40;;
12818;SDS011;6474;53.474;9.894;2023-11-21T00:44:47;1.63;;;1.57;;
12818;SDS011;6474;53.474;9.894;2023-11-21T00:47:16;0.97;;;0.93;;
12818;SDS011;6474;53.474;9.894;2023-11-21T00:49:44;2.37;;;1.97;;
12818;SDS011;6474;53.474;9.894;2023-11-21T00:52:12;1.43;;;1.43;;
12818;SDS011;6474;53.474;9.894;2023-11-21T00:54:41;3.03;;;1.37;;
12818;SDS011;6474;53.474;9.894;2023-11-21T00:57:09;1.27;;;1.17;;
12818;SDS011;6474;53.474;9.894;2023-11-21T00:59:38;1.23;;;1.23;;
12818;SDS011;6474;53.474;9.894;2023-11-21T01:02:06;1.40;;;1.30;;
12818;SDS011;6474;53.474;9.894;2023-11-21T01:04:36;1.50;;;1.40;;
12818;SDS011;6474;53.474;9.894;2023-11-21T01:07:05;2.33;;;1.83;;
12818;SDS011;6474;53.474;9.894;2023-11-21T01:09:33;2.40;;;1.60;;
12818;SDS011;6474;53.474;9.894;2023-11-21T01:12:02;4.90;;;2.10;;
12818;SDS011;6474;53.474;9.894;2023-11-21T01:14:30;2.40;;;1.63;;
12818;SDS011;6474;53.474;9.894;2023-11-21T01:16:58;2.03;;;1.40;;
12818;SDS011;6474;53.474;9.894;2023-11-21T01:19:26;2.73;;;1.83;;
12818;SDS011;6474;53.474;9.894;2023-11-21T01:21:55;2.67;;;2.10;;
12818;SDS011;6474;53.474;9.894;2023-11-21T01:24:24;2.33;;;1.80;;
12818;SDS011;6474;53.474;9.894;2023-11-21T01:26:52;1.23;;;1.23;;
12818;SDS011;6474;53.474;9.894;2023-11-21T01:29:21;4.67;;;2.03;;
12818;SDS011;6474;53.474;9.894;2023-11-21T01:31:49;2.50;;;2.30;;
12818;SDS011;6474;53.474;9.894;2023-11-21T01:34:18;1.40;;;1.30;;
12818;SDS011;6474;53.474;9.894;2023-11-21T01:36:47;1.70;;;1.60;;
12818;SDS011;6474;53.474;9.894;2023-11-21T01:39:15;1.80;;;1.60;;
12818;SDS011;6474;53.474;9.894;2023-11-21T01:41:49;1.83;;;1.70;;
12818;SDS011;6474;53.474;9.894;2023-11-21T01:44:18;2.13;;;1.93;;
12818;SDS011;6474;53.474;9.894;2023-11-21T01:46:48;2.37;;;1.53;;
12818;SDS011;6474;53.474;9.894;2023-11-21T01:49:16;2.27;;;2.10;;
12818;SDS011;6474;53.474;9.894;2023-11-21T01:51:44;1.70;;;1.60;;
12818;SDS011;6474;53.474;9.894;2023-11-21T01:54:16;17.57;;;2.30;;
12818;SDS011;6474;53.474;9.894;2023-11-21T01:56:44;3.10;;;2.10;;
12818;SDS011;6474;53.474;9.894;2023-11-21T01:59:14;1.70;;;1.60;;
12818;SDS011;6474;53.474;9.894;2023-11-21T02:01:48;1.20;;;1.20;;
12818;SDS011;6474;53.474;9.894;2023-11-21T02:04:17;1.57;;;1.53;;
12818;SDS011;6474;53.474;9.894;2023-11-21T02:06:46;3.87;;;2.50;;
12818;SDS011;6474;53.474;9.894;2023-11-21T02:09:14;2.20;;;2.10;;
12818;SDS011;6474;53.474;9.894;2023-11-21T02:11:42;1.63;;;1.30;;
12818;SDS011;6474;53.474;9.894;2023-11-21T02:14:10;2.23;;;1.47;;
12818;SDS011;6474;53.474;9.894;2023-11-21T02:16:40;1.93;;;1.83;;
12818;SDS011;6474;53.474;9.894;2023-11-21T02:19:10;2.00;;;1.90;;
12818;SDS011;6474;53.474;9.894;2023-11-21T02:21:41;1.37;;;1.30;;
12818;SDS011;6474;53.474;9.894;2023-11-21T02:24:12;1.77;;;1.67;;
12818;SDS011;6474;53.474;9.894;2023-11-21T02:26:40;5.10;;;1.83;;
12818;SDS011;6474;53.474;9.894;2023-11-21T02:29:08;1.67;;;1.57;;
12818;SDS011;6474;53.474;9.894;2023-11-21T02:31:38;1.77;;;1.67;;
12818;SDS011;6474;53.474;9.894;2023-11-21T02:34:14;2.40;;;1.50;;
12818;SDS011;6474;53.474;9.894;2023-11-21T02:36:43;1.60;;;1.50;;
12818;SDS011;6474;53.474;9.894;2023-11-21T02:39:13;2.10;;;1.97;;
12818;SDS011;6474;53.474;9.894;2023-11-21T02:41:40;1.67;;;1.63;;
12818;SDS011;6474;53.474;9.894;2023-11-21T02:44:08;1.03;;;1.03;;
12818;SDS011;6474;53.474;9.894;2023-11-21T02:46:36;0.93;;;0.90;;
12818;SDS011;6474;53.474;9.894;2023-11-21T02:49:06;1.10;;;1.10;;
12818;SDS011;6474;53.474;9.894;2023-11-21T02:51:36;1.50;;;1.50;;
12818;SDS011;6474;53.474;9.894;2023-11-21T02:54:05;1.00;;;1.00;;
12818;SDS011;6474;53.474;9.894;2023-11-21T02:56:36;1.50;;;1.40;;
12818;SDS011;6474;53.474;9.894;2023-11-21T02:59:06;1.00;;;1.00;;
12818;SDS011;6474;53.474;9.894;2023-11-21T03:01:34;1.40;;;1.30;;
12818;SDS011;6474;53.474;9.894;2023-11-21T03:04:02;0.77;;;0.77;;
12818;SDS011;6474;53.474;9.894;2023-11-21T03:06:30;1.37;;;1.37;;
12818;SDS011;6474;53.474;9.894;2023-11-21T03:08:57;1.27;;;1.27;;
12818;SDS011;6474;53.474;9.894;2023-11-21T03:11:25;0.80;;;0.80;;
12818;SDS011;6474;53.474;9.894;2023-11-21T03:13:55;1.43;;;1.40;;
12818;SDS011;6474;53.474;9.894;2023-11-21T03:16:22;1.83;;;0.73;;
12818;SDS011;6474;53.474;9.894;2023-11-21T03:18:50;0.80;;;0.80;;
12818;SDS011;6474;53.474;9.894;2023-11-21T03:21:19;3.00;;;1.30;;
12818;SDS011;6474;53.474;9.894;2023-11-21T03:23:47;1.63;;;1.53;;
12818;SDS011;6474;53.474;9.894;2023-11-21T03:26:14;1.37;;;1.27;;
12818;SDS011;6474;53.474;9.894;2023-11-21T03:28:42;1.57;;;1.47;;
12818;SDS011;6474;53.474;9.894;2023-11-21T03:31:12;1.40;;;1.40;;
12818;SDS011;6474;53.474;9.894;2023-11-21T03:33:39;2.97;;;0.90;;
12818;SDS011;6474;53.474;9.894;2023-11-21T03:36:08;0.90;;;0.90;;
12818;SDS011;6474;53.474;9.894;2023-11-21T03:38:36;1.47;;;1.37;;
12818;SDS011;6474;53.474;9.894;2023-11-21T03:41:04;1.10;;;1.10;;
12818;SDS011;6474;53.474;9.894;2023-11-21T03:43:32;1.90;;;1.80;;
12818;SDS011;6474;53.474;9.894;2023-11-21T03:46:00;2.63;;;1.40;;
12818;SDS011;6474;53.474;9.894;2023-11-21T03:48:30;1.10;;;1.10;;
12818;SDS011;6474;53.474;9.894;2023-11-21T03:50:59;1.10;;;1.10;;
12818;SDS011;6474;53.474;9.894;2023-11-21T03:53:27;2.20;;;1.50;;
12818;SDS011;6474;53.474;9.894;2023-11-21T03:55:55;1.20;;;1.20;;
12818;SDS011;6474;53.474;9.894;2023-11-21T03:58:23;2.17;;;1.70;;
12818;SDS011;6474;53.474;9.894;2023-11-21T04:00:51;1.17;;;1.10;;
12818;SDS011;6474;53.474;9.894;2023-11-21T04:03:19;1.20;;;1.07;;
12818;SDS011;6474;53.474;9.894;2023-11-21T04:05:48;4.90;;;1.83;;
12818;SDS011;6474;53.474;9.894;2023-11-21T04:08:16;1.30;;;1.30;;
12818;SDS011;6474;53.474;9.894;2023-11-21T04:10:44;1.60;;;1.50;;
12818;SDS011;6474;53.474;9.894;2023-11-21T04:13:12;1.40;;;1.33;;
12818;SDS011;6474;53.474;9.894;2023-11-21T04:15:40;1.73;;;1.63;;
12818;SDS011;6474;53.474;9.894;2023-11-21T04:18:07;1.97;;;1.87;;
12818;SDS011;6474;53.474;9.894;2023-11-21T04:20:35;1.30;;;1.20;;
12818;SDS011;6474;53.474;9.894;2023-11-21T04:23:05;1.10;;;1.10;;
12818;SDS011;6474;53.474;9.894;2023-11-21T04:25:33;1.50;;;1.50;;
12818;SDS011;6474;53.474;9.894;2023-11-21T04:28:01;1.50;;;1.27;;
12818;SDS011;6474;53.474;9.894;2023-11-21T04:30:29;1.23;;;1.23;;
12818;SDS011;6474;53.474;9.894;2023-11-21T04:32:57;0.87;;;0.87;;
12818;SDS011;6474;53.474;9.894;2023-11-21T04:35:24;1.90;;;1.30;;
12818;SDS011;6474;53.474;9.894;2023-11-21T04:37:52;6.10;;;2.03;;
12818;SDS011;6474;53.474;9.894;2023-11-21T04:40:26;1.47;;;1.33;;
12818;SDS011;6474;53.474;9.894;2023-11-21T04:42:54;1.80;;;1.70;;
12818;SDS011;6474;53.474;9.894;2023-11-21T04:45:23;1.87;;;1.77;;
12818;SDS011;6474;53.474;9.894;2023-11-21T04:47:51;1.57;;;1.53;;
12818;SDS011;6474;53.474;9.894;2023-11-21T04:50:19;2.00;;;1.70;;
12818;SDS011;6474;53.474;9.894;2023-11-21T04:52:47;1.17;;;1.00;;
12818;SDS011;6474;53.474;9.894;2023-11-21T04:55:15;2.67;;;2.47;;
12818;SDS011;6474;53.474;9.894;2023-11-21T04:57:44;1.97;;;1.37;;
12818;SDS011;6474;53.474;9.894;2023-11-21T05:00:13;1.00;;;1.00;;
12818;SDS011;6474;53.474;9.894;2023-11-21T05:02:42;3.20;;;1.30;;
12818;SDS011;6474;53.474;9.894;2023-11-21T05:05:11;1.23;;;1.13;;
12818;SDS011;6474;53.474;9.894;2023-11-21T05:07:39;1.33;;;1.33;;
12818;SDS011;6474;53.474;9.894;2023-11-21T05:10:07;1.47;;;1.10;;
12818;SDS011;6474;53.474;9.894;2023-11-21T05:12:39;1.23;;;1.10;;
12818;SDS011;6474;53.474;9.894;2023-11-21T05:15:09;1.23;;;1.23;;
12818;SDS011;6474;53.474;9.894;2023-11-21T05:17:41;1.60;;;1.50;;
12818;SDS011;6474;53.474;9.894;2023-11-21T05:20:10;1.37;;;1.37;;
12818;SDS011;6474;53.474;9.894;2023-11-21T05:22:40;0.80;;;0.80;;
12818;SDS011;6474;53.474;9.894;2023-11-21T05:25:09;1.30;;;1.23;;
12818;SDS011;6474;53.474;9.894;2023-11-21T05:27:37;1.37;;;1.27;;
12818;SDS011;6474;53.474;9.894;2023-11-21T05:30:05;1.83;;;1.73;;
12818;SDS011;6474;53.474;9.894;2023-11-21T05:32:37;1.50;;;1.40;;
12818;SDS011;6474;53.474;9.894;2023-11-21T05:35:05;2.20;;;2.00;;
12818;SDS011;6474;53.474;9.894;2023-11-21T05:37:35;3.90;;;1.63;;
12818;SDS011;6474;53.474;9.894;2023-11-21T05:40:05;2.57;;;1.57;;
12818;SDS011;6474;53.474;9.894;2023-11-21T05:42:34;1.57;;;1.47;;
12818;SDS011;6474;53.474;9.894;2023-11-21T05:45:05;1.30;;;1.30;;
12818;SDS011;6474;53.474;9.894;2023-11-21T05:47:38;1.60;;;1.60;;
12818;SDS011;6474;53.474;9.894;2023-11-21T05:50:07;1.53;;;1.53;;
12818;SDS011;6474;53.474;9.894;2023-11-21T05:52:38;1.60;;;1.50;;
12818;SDS011;6474;53.474;9.894;2023-11-21T05:55:06;1.87;;;1.77;;
12818;SDS011;6474;53.474;9.894;2023-11-21T05:57:35;1.77;;;1.67;;
12818;SDS011;6474;53.474;9.894;2023-11-21T06:00:05;5.90;;;3.00;;
12818;SDS011;6474;53.474;9.894;2023-11-21T06:02:39;4.07;;;2.20;;
12818;SDS011;6474;53.474;9.894;2023-11-21T06:05:08;2.77;;;1.87;;
12818;SDS011;6474;53.474;9.894;2023-11-21T06:07:36;1.80;;;1.70;;
12818;SDS011;6474;53.474;9.894;2023-11-21T06:10:07;2.77;;;1.90;;
12818;SDS011;6474;53.474;9.894;2023-11-21T06:12:36;1.57;;;1.47;;
12818;SDS011;6474;53.474;9.894;2023-11-21T06:15:06;1.80;;;1.70;;
12818;SDS011;6474;53.474;9.894;2023-11-21T06:17:35;4.73;;;2.00;;
12818;SDS011;6474;53.474;9.894;2023-11-21T06:20:05;5.43;;;1.53;;
12818;SDS011;6474;53.474;9.894;2023-11-21T06:22:36;2.40;;;1.80;;
12818;SDS011;6474;53.474;9.894;2023-11-21T06:25:05;6.50;;;2.50;;
12818;SDS011;6474;53.474;9.894;2023-11-21T06:27:37;2.13;;;1.90;;
12818;SDS011;6474;53.474;9.894;2023-11-21T06:30:07;2.27;;;2.07;;
12818;SDS011;6474;53.474;9.894;2023-11-21T06:32:36;2.57;;;2.37;;
12818;SDS011;6474;53.474;9.894;2023-11-21T06:35:06;1.80;;;1.70;;
12818;SDS011;6474;53.474;9.894;2023-11-21T06:37:36;5.03;;;3.97;;
12818;SDS011;6474;53.474;9.894;2023-11-21T06:40:05;1.90;;;1.73;;
12818;SDS011;6474;53.474;9.894;2023-11-21T06:42:33;2.47;;;2.00;;
12818;SDS011;6474;53.474;9.894;2023-11-21T06:45:00;1.80;;;1.70;;
12818;SDS011;6474;53.474;9.894;2023-11-21T06:47:30;2.13;;;1.90;;
12818;SDS011;6474;53.474;9.894;2023-11-21T06:49:58;1.43;;;1.33;;
12818;SDS011;6474;53.474;9.894;2023-11-21T06:52:28;3.23;;;1.93;;
12818;SDS011;6474;53.474;9.894;2023-11-21T06:54:56;2.93;;;2.17;;
12818;SDS011;6474;53.474;9.894;2023-11-21T06:57:24;3.77;;;2.33;;
12818;SDS011;6474;53.474;9.894;2023-11-21T06:59:52;2.20;;;1.93;;
12818;SDS011;6474;53.474;9.894;2023-11-21T07:02:20;1.60;;;1.50;;
12818;SDS011;6474;53.474;9.894;2023-11-21T07:04:48;6.53;;;3.33;;
12818;SDS011;6474;53.474;9.894;2023-11-21T07:07:18;1.97;;;1.87;;
12818;SDS011;6474;53.474;9.894;2023-11-21T07:09:47;1.60;;;1.50;;
12818;SDS011;6474;53.474;9.894;2023-11-21T07:12:15;1.53;;;1.47;;
12818;SDS011;6474;53.474;9.894;2023-11-21T07:14:44;2.43;;;2.30;;
12818;SDS011;6474;53.474;9.894;2023-11-21T07:17:12;3.13;;;1.57;;
12818;SDS011;6474;53.474;9.894;2023-11-21T07:19:40;1.83;;;1.63;;
12818;SDS011;6474;53.474;9.894;2023-11-21T07:22:08;1.90;;;1.50;;
12818;SDS011;6474;53.474;9.894;2023-11-21T07:24:37;2.10;;;2.00;;
12818;SDS011;6474;53.474;9.894;2023-11-21T07:27:06;1.77;;;1.77;;
12818;SDS011;6474;53.474;9.894;2023-11-21T07:29:34;2.83;;;2.00;;
12818;SDS011;6474;53.474;9.894;2023-11-21T07:32:02;1.73;;;1.63;;
12818;SDS011;6474;53.474;9.894;2023-11-21T07:34:30;2.93;;;2.20;;
12818;SDS011;6474;53.474;9.894;2023-11-21T07:36:58;1.53;;;1.40;;
12818;SDS011;6474;53.474;9.894;2023-11-21T07:39:26;3.50;;;2.00;;
12818;SDS011;6474;53.474;9.894;2023-11-21T07:41:54;2.13;;;2.00;;
12818;SDS011;6474;53.474;9.894;2023-11-21T07:44:25;2.10;;;2.00;;
12818;SDS011;6474;53.474;9.894;2023-11-21T07:46:53;2.30;;;2.00;;
12818;SDS011;6474;53.474;9.894;2023-11-21T07:49:23;1.87;;;1.77;;
12818;SDS011;6474;53.474;9.894;2023-11-21T07:51:52;2.30;;;1.73;;
12818;SDS011;6474;53.474;9.894;2023-11-21T07:54:20;2.10;;;2.00;;
12818;SDS011;6474;53.474;9.894;2023-11-21T07:56:48;1.90;;;1.67;;
12818;SDS011;6474;53.474;9.894;2023-11-21T07:59:16;2.53;;;2.10;;
12818;SDS011;6474;53.474;9.894;2023-11-21T08:01:45;1.57;;;1.57;;
12818;SDS011;6474;53.474;9.894;2023-11-21T08:04:13;1.53;;;1.43;;
12818;SDS011;6474;53.474;9.894;2023-11-21T08:06:41;2.53;;;1.87;;
12818;SDS011;6474;53.474;9.894;2023-11-21T08:09:09;1.87;;;1.73;;
12818;SDS011;6474;53.474;9.894;2023-11-21T08:11:38;3.57;;;1.63;;
12818;SDS011;6474;53.474;9.894;2023-11-21T08:14:06;1.73;;;1.63;;
12818;SDS011;6474;53.474;9.894;2023-11-21T08:16:34;2.20;;;1.80;;
12818;SDS011;6474;53.474;9.894;2023-11-21T08:19:04;3.33;;;2.37;;
12818;SDS011;6474;53.474;9.894;2023-11-21T08:21:32;2.67;;;1.87;;
12818;SDS011;6474;53.474;9.894;2023-11-21T08:24:00;2.13;;;2.03;;
12818;SDS011;6474;53.474;9.894;2023-11-21T08:26:30;1.93;;;1.83;;
12818;SDS011;6474;53.474;9.894;2023-11-21T08:28:58;2.27;;;2.03;;
12818;SDS011;6474;53.474;9.894;2023-11-21T08:31:27;1.83;;;1.67;;
12818;SDS011;6474;53.474;9.894;2023-11-21T08:33:55;1.63;;;1.53;;
12818;SDS011;6474;53.474;9.894;2023-11-21T08:36:25;2.37;;;2.27;;
12818;SDS011;6474;53.474;9.894;2023-11-21T08:38:53;2.13;;;2.03;;
12818;SDS011;6474;53.474;9.894;2023-11-21T08:41:21;1.40;;;1.40;;
12818;SDS011;6474;53.474;9.894;2023-11-21T08:43:49;6.83;;;1.43;;
12818;SDS011;6474;53.474;9.894;2023-11-21T08:46:18;1.83;;;1.73;;
12818;SDS011;6474;53.474;9.894;2023-11-21T08:48:47;1.57;;;1.40;;
12818;SDS011;6474;53.474;9.894;2023-11-21T08:51:15;1.77;;;1.57;;
12818;SDS011;6474;53.474;9.894;2023-11-21T08:53:44;1.67;;;1.63;;
12818;SDS011;6474;53.474;9.894;2023-11-21T08:56:13;1.27;;;1.27;;
12818;SDS011;6474;53.474;9.894;2023-11-21T08:58:41;3.03;;;1.50;;
12818;SDS011;6474;53.474;9.894;2023-11-21T09:01:09;1.10;;;1.00;;
12818;SDS011;6474;53.474;9.894;2023-11-21T09:03:38;1.30;;;1.30;;
12818;SDS011;6474;53.474;9.894;2023-11-21T09:06:07;1.53;;;1.20;;
12818;SDS011;6474;53.474;9.894;2023-11-21T09:08:36;3.83;;;1.67;;
12818;SDS011;6474;53.474;9.894;2023-11-21T09:11:05;1.40;;;1.40;;
12818;SDS011;6474;53.474;9.894;2023-11-21T09:13:34;0.73;;;0.73;;
12818;SDS011;6474;53.474;9.894;2023-11-21T09:16:03;1.23;;;1.17;;
12818;SDS011;6474;53.474;9.894;2023-11-21T09:18:31;0.90;;;0.90;;
12818;SDS011;6474;53.474;9.894;2023-11-21T09:21:00;1.23;;;1.23;;
12818;SDS011;6474;53.474;9.894;2023-11-21T09:23:28;0.97;;;0.93;;
12818;SDS011;6474;53.474;9.894;2023-11-21T09:25:56;0.70;;;0.70;;
12818;SDS011;6474;53.474;9.894;2023-11-21T09:28:27;0.80;;;0.80;;
12818;SDS011;6474;53.474;9.894;2023-11-21T09:30:55;1.23;;;1.23;;
12818;SDS011;6474;53.474;9.894;2023-11-21T09:33:23;1.20;;;1.20;;
12818;SDS011;6474;53.474;9.894;2023-11-21T09:35:51;0.63;;;0.63;;
12818;SDS011;6474;53.474;9.894;2023-11-21T09:38:20;1.20;;;0.90;;
12818;SDS011;6474;53.474;9.894;2023-11-21T09:40:52;1.07;;;1.07;;
12818;SDS011;6474;53.474;9.894;2023-11-21T09:43:20;0.90;;;0.90;;
12818;SDS011;6474;53.474;9.894;2023-11-21T09:45:51;1.17;;;1.17;;
12818;SDS011;6474;53.474;9.894;2023-11-21T09:48:27;1.07;;;1.07;;
12818;SDS011;6474;53.474;9.894;2023-11-21T09:50:56;0.73;;;0.73;;
12818;SDS011;6474;53.474;9.894;2023-11-21T09:53:26;1.00;;;1.00;;
12818;SDS011;6474;53.474;9.894;2023-11-21T09:56:00;0.90;;;0.90;;
12818;SDS011;6474;53.474;9.894;2023-11-21T09:58:29;1.10;;;1.10;;
12818;SDS011;6474;53.474;9.894;2023-11-21T10:01:01;1.33;;;1.30;;
12818;SDS011;6474;53.474;9.894;2023-11-21T10:03:34;1.10;;;1.10;;
12818;SDS011;6474;53.474;9.894;2023-11-21T10:06:04;0.90;;;0.90;;
12818;SDS011;6474;53.474;9.894;2023-11-21T10:08:35;3.97;;;1.00;;
12818;SDS011;6474;53.474;9.894;2023-11-21T10:11:18;0.97;;;0.97;;
12818;SDS011;6474;53.474;9.894;2023-11-21T10:13:48;1.80;;;1.47;;
12818;SDS011;6474;53.474;9.894;2023-11-21T10:16:21;1.30;;;1.30;;
12818;SDS011;6474;53.474;9.894;2023-11-21T10:18:52;0.80;;;0.80;;
12818;SDS011;6474;53.474;9.894;2023-11-21T10:21:36;1.47;;;1.17;;
12818;SDS011;6474;53.474;9.894;2023-11-21T10:24:05;0.83;;;0.83;;
12818;SDS011;6474;53.474;9.894;2023-11-21T10:26:34;0.80;;;0.80;;
12818;SDS011;6474;53.474;9.894;2023-11-21T10:29:16;2.07;;;1.53;;
12818;SDS011;6474;53.474;9.894;2023-11-21T10:31:48;1.10;;;1.00;;
12818;SDS011;6474;53.474;9.894;2023-11-21T10:34:17;2.03;;;1.97;;
12818;SDS011;6474;53.474;9.894;2023-11-21T10:36:46;1.60;;;1.60;;
12818;SDS011;6474;53.474;9.894;2023-11-21T10:39:16;0.97;;;0.97;;
12818;SDS011;6474;53.474;9.894;2023-11-21T10:41:45;0.77;;;0.77;;
12818;SDS011;6474;53.474;9.894;2023-11-21T10:44:13;1.10;;;1.10;;
12818;SDS011;6474;53.474;9.894;2023-11-21T10:46:48;0.80;;;0.80;;
12818;SDS011;6474;53.474;9.894;2023-11-21T10:49:17;0.87;;;0.87;;
12818;SDS011;6474;53.474;9.894;2023-11-21T10:51:46;1.23;;;1.20;;
12818;SDS011;6474;53.474;9.894;2023-11-21T10:54:17;1.23;;;1.23;;
12818;SDS011;6474;53.474;9.894;2023-11-21T10:56:47;1.33;;;1.23;;
12818;SDS011;6474;53.474;9.894;2023-11-21T10:59:17;3.90;;;1.17;;
12818;SDS011;6474;53.474;9.894;2023-11-21T11:01:48;3.50;;;1.10;;
12818;SDS011;6474;53.474;9.894;2023-11-21T11:04:19;1.83;;;0.83;;
12818;SDS011;6474;53.474;9.894;2023-11-21T11:06:49;1.20;;;1.20;;
12818;SDS011;6474;53.474;9.894;2023-11-21T11:09:21;0.93;;;0.93;;
12818;SDS011;6474;53.474;9.894;2023-11-21T11:11:50;0.70;;;0.70;;
12818;SDS011;6474;53.474;9.894;2023-11-21T11:14:19;2.10;;;1.13;;
12818;SDS011;6474;53.474;9.894;2023-11-21T11:16:52;0.90;;;0.90;;
12818;SDS011;6474;53.474;9.894;2023-11-21T11:19:22;1.47;;;1.37;;
12818;SDS011;6474;53.474;9.894;2023-11-21T11:21:53;0.60;;;0.60;;
12818;SDS011;6474;53.474;9.894;2023-11-21T11:24:34;0.93;;;0.93;;
12818;SDS011;6474;53.474;9.894;2023-11-21T11:27:15;0.70;;;0.70;;
12818;SDS011;6474;53.474;9.894;2023-11-21T11:30:04;1.00;;;1.00;;
12818;SDS011;6474;53.474;9.894;2023-11-21T11:32:43;0.90;;;0.90;;
12818;SDS011;6474;53.474;9.894;2023-11-21T11:35:24;0.80;;;0.80;;
12818;SDS011;6474;53.474;9.894;2023-11-21T11:37:58;0.63;;;0.63;;
12818;SDS011;6474;53.474;9.894;2023-11-21T11:40:38;0.77;;;0.77;;
12818;SDS011;6474;53.474;9.894;2023-11-21T11:43:07;1.10;;;0.87;;
12818;SDS011;6474;53.474;9.894;2023-11-21T11:45:35;0.80;;;0.80;;
12818;SDS011;6474;53.474;9.894;2023-11-21T11:48:10;0.93;;;0.93;;
12818;SDS011;6474;53.474;9.894;2023-11-21T11:50:42;1.10;;;1.10;;
12818;SDS011;6474;53.474;9.894;2023-11-21T11:53:25;0.70;;;0.70;;
12818;SDS011;6474;53.474;9.894;2023-11-21T11:55:57;1.03;;;1.03;;
12818;SDS011;6474;53.474;9.894;2023-11-21T11:58:46;0.70;;;0.70;;
12818;SDS011;6474;53.474;9.894;2023-11-21T12:01:16;1.03;;;0.80;;
12818;SDS011;6474;53.474;9.894;2023-11-21T12:06:52;1.57;;;0.90;;
12818;SDS011;6474;53.474;9.894;2023-11-21T12:09:21;1.10;;;1.10;;
12818;SDS011;6474;53.474;9.894;2023-11-21T12:11:52;1.10;;;1.10;;
12818;SDS011;6474;53.474;9.894;2023-11-21T12:14:22;2.53;;;1.20;;
12818;SDS011;6474;53.474;9.894;2023-11-21T12:16:51;1.00;;;1.00;;
12818;SDS011;6474;53.474;9.894;2023-11-21T12:19:19;2.20;;;0.90;;
12818;SDS011;6474;53.474;9.894;2023-11-21T12:21:49;1.00;;;1.00;;
12818;SDS011;6474;53.474;9.894;2023-11-21T12:24:20;0.80;;;0.80;;
12818;SDS011;6474;53.474;9.894;2023-11-21T12:26:50;0.80;;;0.80;;
12818;SDS011;6474;53.474;9.894;2023-11-21T12:29:18;0.70;;;0.70;;
12818;SDS011;6474;53.474;9.894;2023-11-21T12:31:48;1.03;;;1.03;;
12818;SDS011;6474;53.474;9.894;2023-11-21T12:34:17;0.80;;;0.80;;
12818;SDS011;6474;53.474;9.894;2023-11-21T12:36:45;0.73;;;0.73;;
12818;SDS011;6474;53.474;9.894;2023-11-21T12:39:13;0.80;;;0.80;;
12818;SDS011;6474;53.474;9.894;2023-11-21T12:41:42;2.37;;;0.90;;
12818;SDS011;6474;53.474;9.894;2023-11-21T12:44:12;1.17;;;1.17;;
12818;SDS011;6474;53.474;9.894;2023-11-21T12:46:42;1.00;;;1.00;;
12818;SDS011;6474;53.474;9.894;2023-11-21T12:49:12;0.80;;;0.80;;
12818;SDS011;6474;53.474;9.894;2023-11-21T12:51:45;0.80;;;0.80;;
12818;SDS011;6474;53.474;9.894;2023-11-21T12:54:13;0.80;;;0.80;;
12818;SDS011;6474;53.474;9.894;2023-11-21T12:56:45;3.00;;;0.93;;
12818;SDS011;6474;53.474;9.894;2023-11-21T12:59:15;0.67;;;0.67;;
12818;SDS011;6474;53.474;9.894;2023-11-21T13:01:44;0.70;;;0.70;;
12818;SDS011;6474;53.474;9.894;2023-11-21T13:04:12;1.00;;;1.00;;
12818;SDS011;6474;53.474;9.894;2023-11-21T13:06:40;1.20;;;1.10;;
12818;SDS011;6474;53.474;9.894;2023-11-21T13:09:08;0.90;;;0.90;;
12818;SDS011;6474;53.474;9.894;2023-11-21T13:11:37;0.90;;;0.90;;
12818;SDS011;6474;53.474;9.894;2023-11-21T13:14:08;1.20;;;1.20;;
12818;SDS011;6474;53.474;9.894;2023-11-21T13:16:39;0.87;;;0.87;;
12818;SDS011;6474;53.474;9.894;2023-11-21T13:19:13;0.50;;;0.50;;
12818;SDS011;6474;53.474;9.894;2023-11-21T13:21:41;0.87;;;0.77;;
12818;SDS011;6474;53.474;9.894;2023-11-21T13:24:08;1.03;;;1.03;;
12818;SDS011;6474;53.474;9.894;2023-11-21T13:26:37;3.50;;;0.90;;
12818;SDS011;6474;53.474;9.894;2023-11-21T13:29:05;0.77;;;0.77;;
12818;SDS011;6474;53.474;9.894;2023-11-21T13:31:34;4.27;;;1.17;;
12818;SDS011;6474;53.474;9.894;2023-11-21T13:34:03;0.80;;;0.80;;
12818;SDS011;6474;53.474;9.894;2023-11-21T13:36:34;1.13;;;1.13;;
12818;SDS011;6474;53.474;9.894;2023-11-21T13:39:02;0.87;;;0.87;;
12818;SDS011;6474;53.474;9.894;2023-11-21T13:41:34;0.60;;;0.60;;
12818;SDS011;6474;53.474;9.894;2023-11-21T13:44:05;0.67;;;0.67;;
12818;SDS011;6474;53.474;9.894;2023-11-21T13:46:44;0.37;;;0.37;;
12818;SDS011;6474;53.474;9.894;2023-11-21T13:49:13;4.23;;;0.67;;
12818;SDS011;6474;53.474;9.894;2023-11-21T13:51:42;0.60;;;0.60;;
12818;SDS011;6474;53.474;9.894;2023-11-21T13:54:11;1.07;;;1.07;;
12818;SDS011;6474;53.474;9.894;2023-11-21T13:56:42;0.80;;;0.80;;
12818;SDS011;6474;53.474;9.894;2023-11-21T13:59:17;0.70;;;0.70;;
12818;SDS011;6474;53.474;9.894;2023-11-21T14:01:49;0.90;;;0.80;;
12818;SDS011;6474;53.474;9.894;2023-11-21T14:04:26;0.87;;;0.87;;
12818;SDS011;6474;53.474;9.894;2023-11-21T14:07:11;1.57;;;1.07;;
12818;SDS011;6474;53.474;9.894;2023-11-21T14:09:54;0.60;;;0.60;;
12818;SDS011;6474;53.474;9.894;2023-11-21T14:12:22;1.00;;;1.00;;
12818;SDS011;6474;53.474;9.894;2023-11-21T14:14:52;0.83;;;0.83;;
12818;SDS011;6474;53.474;9.894;2023-11-21T14:17:22;0.77;;;0.77;;
12818;SDS011;6474;53.474;9.894;2023-11-21T14:19:51;1.80;;;0.90;;
12818;SDS011;6474;53.474;9.894;2023-11-21T14:22:19;0.83;;;0.83;;
12818;SDS011;6474;53.474;9.894;2023-11-21T14:24:47;1.20;;;0.90;;
12818;SDS011;6474;53.474;9.894;2023-11-21T14:27:16;8.13;;;0.63;;
12818;SDS011;6474;53.474;9.894;2023-11-21T14:29:44;0.80;;;0.80;;
12818;SDS011;6474;53.474;9.894;2023-11-21T14:32:12;0.90;;;0.90;;
12818;SDS011;6474;53.474;9.894;2023-11-21T14:34:42;1.40;;;1.30;;
12818;SDS011;6474;53.474;9.894;2023-11-21T14:37:13;0.70;;;0.70;;
12818;SDS011;6474;53.474;9.894;2023-11-21T14:39:41;0.60;;;0.60;;
12818;SDS011;6474;53.474;9.894;2023-11-21T14:42:12;0.90;;;0.90;;
12818;SDS011;6474;53.474;9.894;2023-11-21T14:44:41;0.93;;;0.93;;
12818;SDS011;6474;53.474;9.894;2023-11-21T14:47:09;0.70;;;0.70;;
12818;SDS011;6474;53.474;9.894;2023-11-21T14:49:43;1.50;;;1.10;;
12818;SDS011;6474;53.474;9.894;2023-11-21T14:52:22;0.70;;;0.70;;
12818;SDS011;6474;53.474;9.894;2023-11-21T14:55:00;4.27;;;1.00;;
12818;SDS011;6474;53.474;9.894;2023-11-21T14:57:43;0.80;;;0.80;;
12818;SDS011;6474;53.474;9.894;2023-11-21T15:00:16;0.60;;;0.60;;
12818;SDS011;6474;53.474;9.894;2023-11-21T15:03:04;0.70;;;0.70;;
12818;SDS011;6474;53.474;9.894;2023-11-21T15:05:34;0.67;;;0.67;;
12818;SDS011;6474;53.474;9.894;2023-11-21T15:08:02;0.80;;;0.80;;
12818;SDS011;6474;53.474;9.894;2023-11-21T15:10:45;0.87;;;0.87;;
12818;SDS011;6474;53.474;9.894;2023-11-21T15:13:13;0.80;;;0.80;;
12818;SDS011;6474;53.474;9.894;2023-11-21T15:15:42;0.93;;;0.93;;
12818;SDS011;6474;53.474;9.894;2023-11-21T15:18:10;1.43;;;1.20;;